Time;durP1;ratioP1;P1;durP2;ratioP2;P2;SDS_P1;SDS_P2;PMS_P1;PMS_P2;Temp;Humidity;BMP_temperature;BMP_pressure;BME280_temperature;BME280_humidity;BME280_pressure;Samples;Min_cycle;Max_cycle;Signal;HPM_P1;HPM_P2
2021/05/25 00:00:26;;;;;;;;;;;;;;;15.72;55.79;97288.41;1748329;82;20495;-85
2021/05/25 00:02:55;;;;;;;;;;;;;;;15.74;56.05;97294.42;1747655;82;20171;-83
2021/05/25 00:05:29;;;;;;;;;;;;;;;15.73;55.68;97283.95;1746634;82;20216;-81
2021/05/25 00:07:56;;;;;;;;;;;;;;;15.71;55.90;97280.60;1748263;82;20206;-85
2021/05/25 00:10:26;;;;;;;;;;;;;;;15.69;55.91;97276.75;1747846;82;20171;-82
2021/05/25 00:12:52;;;;;;;;;;;;;;;15.67;55.68;97261.95;1727601;82;20160;-84
2021/05/25 00:15:21;;;;;;;;;;;;;;;15.66;55.89;97261.61;1748878;81;20146;-83
2021/05/25 00:17:48;;;;;;;;;;;;;;;15.65;55.52;97261.26;1749141;82;20148;-87
2021/05/25 00:20:16;;;;;;;;;;;;;;;15.59;56.49;97266.20;1748200;81;20158;-84
2021/05/25 00:22:43;;;;;;;;;;;;;;;15.57;55.76;97264.69;1751654;81;20151;-87
2021/05/25 00:25:10;;;;;;;;;;;;;;;15.53;55.75;97264.64;1751734;82;20162;-84
2021/05/25 00:27:38;;;;;;;;;;;;;;;15.48;57.14;97252.31;1752652;82;20166;-85
2021/05/25 00:30:05;;;;;;;;;;;;;;;15.45;56.99;97251.63;1751336;82;20203;-86
2021/05/25 00:32:32;;;;;;;;;;;;;;;15.42;56.87;97246.60;1752511;82;20238;-87
2021/05/25 00:34:58;;;;;;;;;;;;;;;15.38;58.23;97241.73;1751973;82;20494;-85
2021/05/25 00:37:24;;;;;;;;;;;;;;;15.34;58.21;97241.20;1752098;81;21241;-85
2021/05/25 00:39:50;;;;;;;;;;;;;;;15.36;57.19;97245.06;1751578;82;20518;-84
2021/05/25 00:42:17;;;;;;;;;;;;;;;15.36;57.25;97238.42;1752752;81;20550;-85
2021/05/25 00:44:43;;;;;;;;;;;;;;;15.38;57.61;97245.25;1752120;81;20550;-84
2021/05/25 00:47:09;;;;;;;;;;;;;;;15.42;56.51;97239.14;1751510;82;20245;-83
2021/05/25 00:49:35;;;;;;;;;;;;;;;15.42;57.24;97245.27;1751628;81;20471;-85
2021/05/25 00:52:02;;;;;;;;;;;;;;;15.44;56.99;97243.30;1751549;82;20507;-83
2021/05/25 00:54:28;;;;;;;;;;;;;;;15.45;57.79;97230.38;1751783;81;20170;-83
2021/05/25 00:56:56;;;;;;;;;;;;;;;15.48;56.91;97219.11;1752036;82;20486;-80
2021/05/25 00:59:23;;;;;;;;;;;;;;;15.52;57.32;97208.50;1722966;83;20485;-84
2021/05/25 01:01:49;;;;;;;;;;;;;;;15.52;57.87;97206.70;1749879;82;20460;-83
2021/05/25 01:04:15;;;;;;;;;;;;;;;15.55;57.18;97204.23;1751972;82;20463;-81
2021/05/25 01:06:41;;;;;;;;;;;;;;;15.56;57.63;97211.22;1751368;82;20146;-83
2021/05/25 01:09:07;;;;;;;;;;;;;;;15.59;57.10;97210.41;1751163;82;20146;-84
2021/05/25 01:11:37;;;;;;;;;;;;;;;15.63;57.28;97210.13;1751235;81;20139;-84
2021/05/25 01:14:07;;;;;;;;;;;;;;;15.64;57.45;97213.95;1751223;82;20166;-84
2021/05/25 01:16:33;;;;;;;;;;;;;;;15.66;57.11;97215.96;1751461;81;20170;-81
2021/05/25 01:18:59;;;;;;;;;;;;;;;15.66;57.27;97212.45;1752568;81;20165;-84
2021/05/25 01:21:26;;;;;;;;;;;;;;;15.61;58.08;97227.05;1762940;79;20165;-87
2021/05/25 01:23:53;;;;;;;;;;;;;;;15.59;58.10;97222.38;1756223;82;20212;-84
2021/05/25 01:26:19;;;;;;;;;;;;;;;15.58;57.91;97219.37;1781118;80;20178;-84
2021/05/25 01:28:46;;;;;;;;;;;;;;;15.57;56.88;97208.39;1763627;80;20153;-84
2021/05/25 01:31:13;;;;;;;;;;;;;;;15.57;57.16;97216.88;1773299;80;20147;-84
2021/05/25 01:33:39;;;;;;;;;;;;;;;15.56;57.18;97207.23;1784740;80;20221;-85
2021/05/25 01:36:08;;;;;;;;;;;;;;;15.51;58.63;97223.62;1769642;80;20147;-85
2021/05/25 01:38:36;;;;;;;;;;;;;;;15.51;58.23;97246.20;1784803;80;20139;-87
2021/05/25 01:41:04;;;;;;;;;;;;;;;15.50;58.35;97248.52;1764322;80;20193;-82
2021/05/25 01:43:31;;;;;;;;;;;;;;;15.49;58.68;97237.54;1768951;80;20155;-82
2021/05/25 01:45:57;;;;;;;;;;;;;;;15.48;58.43;97215.12;1771364;80;20153;-82
2021/05/25 01:48:23;;;;;;;;;;;;;;;15.45;57.88;97217.59;1757243;80;20165;-83
2021/05/25 01:50:50;;;;;;;;;;;;;;;15.44;58.16;97221.23;1783632;80;20172;-84
2021/05/25 01:53:21;;;;;;;;;;;;;;;15.42;58.74;97214.73;1772359;80;20492;-82
2021/05/25 01:55:52;;;;;;;;;;;;;;;15.39;59.29;97213.72;1774231;80;20153;-86
2021/05/25 01:58:25;;;;;;;;;;;;;;;15.39;58.64;97212.39;1756488;82;20139;-83
2021/05/25 02:00:54;;;;;;;;;;;;;;;15.37;60.01;97218.34;1755204;81;20573;-83
2021/05/25 02:03:21;;;;;;;;;;;;;;;15.38;58.96;97215.17;1756317;81;20173;-83
2021/05/25 02:05:47;;;;;;;;;;;;;;;15.39;59.50;97214.20;1771672;80;20231;-83
2021/05/25 02:08:15;;;;;;;;;;;;;;;15.42;59.32;97219.22;1782120;80;20235;-86
2021/05/25 02:10:47;;;;;;;;;;;;;;;15.42;59.44;97210.74;1784076;80;20158;-86
2021/05/25 02:13:16;;;;;;;;;;;;;;;15.44;59.24;97217.25;1784583;80;20174;-86
2021/05/25 02:15:45;;;;;;;;;;;;;;;15.47;58.89;97219.59;1769705;80;20161;-84
2021/05/25 02:18:14;;;;;;;;;;;;;;;15.48;59.69;97253.14;1770289;80;20155;-83
2021/05/25 02:20:42;;;;;;;;;;;;;;;15.51;59.05;97263.47;1762549;80;20186;-84
2021/05/25 02:23:08;;;;;;;;;;;;;;;15.52;59.36;97234.59;1748174;82;20495;-87
2021/05/25 02:25:35;;;;;;;;;;;;;;;15.53;59.11;97226.97;1748922;82;20167;-83
2021/05/25 02:28:02;;;;;;;;;;;;;;;15.54;59.63;97225.14;1749824;82;20158;-84
2021/05/25 02:30:29;;;;;;;;;;;;;;;15.54;59.63;97223.33;1749763;81;20163;-84
2021/05/25 02:32:56;;;;;;;;;;;;;;;15.54;59.60;97224.66;1748810;82;20150;-85
2021/05/25 02:35:23;;;;;;;;;;;;;;;15.53;59.93;97219.48;1749504;81;20147;-83
2021/05/25 02:37:50;;;;;;;;;;;;;;;15.50;60.14;97229.09;1745759;82;20150;-84
2021/05/25 02:40:16;;;;;;;;;;;;;;;15.51;60.20;97234.72;1745623;82;20147;-84
2021/05/25 02:42:42;;;;;;;;;;;;;;;15.48;60.62;97233.21;1748547;82;20163;-84
2021/05/25 02:45:09;;;;;;;;;;;;;;;15.46;59.68;97225.41;1748469;81;20534;-83
2021/05/25 02:47:35;;;;;;;;;;;;;;;15.45;60.19;97201.16;1748650;82;20150;-83
2021/05/25 02:50:09;;;;;;;;;;;;;;;15.45;60.41;97187.05;1749555;82;20221;-84
2021/05/25 02:52:40;;;;;;;;;;;;;;;15.42;60.69;97178.88;1749950;81;20196;-83
2021/05/25 02:55:08;;;;;;;;;;;;;;;15.41;60.36;97168.41;1749123;81;20136;-85
2021/05/25 02:57:34;;;;;;;;;;;;;;;15.43;60.85;97175.73;1749629;82;20167;-85
2021/05/25 03:00:03;;;;;;;;;;;;;;;15.39;60.84;97165.06;1747675;81;20510;-87
2021/05/25 03:02:29;;;;;;;;;;;;;;;15.35;60.88;97171.17;1719961;83;20164;-84
2021/05/25 03:04:55;;;;;;;;;;;;;;;15.30;62.92;97164.17;1730579;82;20478;-83
2021/05/25 03:07:21;;;;;;;;;;;;;;;15.31;62.52;97141.94;1749294;82;20223;-82
2021/05/25 03:09:48;;;;;;;;;;;;;;;15.33;61.86;97120.54;1749236;81;20131;-85
2021/05/25 03:12:14;;;;;;;;;;;;;;;15.36;62.01;97093.69;1747937;82;20147;-83
2021/05/25 03:14:40;;;;;;;;;;;;;;;15.40;61.32;97074.63;1747377;82;20166;-82
2021/05/25 03:17:06;;;;;;;;;;;;;;;15.43;61.30;97090.75;1748425;82;20157;-84
2021/05/25 03:19:32;;;;;;;;;;;;;;;15.47;60.72;97141.23;1745848;81;20142;-84
2021/05/25 03:21:58;;;;;;;;;;;;;;;15.50;61.02;97109.56;1747553;82;20182;-85
2021/05/25 03:24:25;;;;;;;;;;;;;;;15.45;61.61;97137.41;1747671;82;20212;-84
2021/05/25 03:26:51;;;;;;;;;;;;;;;15.41;61.56;97133.88;1746805;81;20182;-85
2021/05/25 03:29:17;;;;;;;;;;;;;;;15.37;61.69;97149.77;1747634;82;20171;-82
2021/05/25 03:31:43;;;;;;;;;;;;;;;15.36;62.33;97150.78;1748424;82;20150;-86
2021/05/25 03:34:10;;;;;;;;;;;;;;;15.36;61.69;97144.14;1746548;82;20155;-85
2021/05/25 03:36:39;;;;;;;;;;;;;;;15.37;61.66;97122.73;1745847;82;20515;-84
2021/05/25 03:39:05;;;;;;;;;;;;;;;15.40;62.19;97106.50;1748900;81;20179;-81
2021/05/25 03:41:32;;;;;;;;;;;;;;;15.38;62.10;97118.25;1745818;82;20154;-83
2021/05/25 03:44:00;;;;;;;;;;;;;;;15.35;62.24;97112.75;1748635;82;20162;-80
2021/05/25 03:46:28;;;;;;;;;;;;;;;15.37;62.23;97140.00;1749342;82;20228;-80
2021/05/25 03:48:54;;;;;;;;;;;;;;;15.40;61.98;97158.30;1749629;82;20206;-83
2021/05/25 03:51:20;;;;;;;;;;;;;;;15.26;61.73;97104.37;1749609;81;20176;-82
2021/05/25 03:53:49;;;;;;;;;;;;;;;15.38;62.51;97121.75;1747988;82;20160;-82
2021/05/25 03:56:17;;;;;;;;;;;;;;;15.37;62.69;97121.41;1749177;81;20155;-81
2021/05/25 03:58:53;;;;;;;;;;;;;;;15.40;62.13;97121.11;1749007;82;20178;-85
2021/05/25 04:01:21;;;;;;;;;;;;;;;15.42;62.25;97120.95;1711379;83;20152;-82
2021/05/25 04:03:53;;;;;;;;;;;;;;;15.41;62.46;97119.28;1711845;84;20168;-87
2021/05/25 04:06:19;;;;;;;;;;;;;;;15.44;62.21;97130.94;1712696;84;20512;-81
2021/05/25 04:08:46;;;;;;;;;;;;;;;15.42;62.54;97115.13;1713369;83;20184;-81
2021/05/25 04:11:13;;;;;;;;;;;;;;;15.45;62.58;97106.05;1715899;83;20534;-85
2021/05/25 04:13:40;;;;;;;;;;;;;;;15.47;62.76;97102.72;1710501;84;20552;-86
2021/05/25 04:16:11;;;;;;;;;;;;;;;15.49;62.34;97095.44;1711596;83;20152;-88
2021/05/25 04:18:38;;;;;;;;;;;;;;;15.53;62.22;97110.56;1710795;83;20235;-87
2021/05/25 04:21:04;;;;;;;;;;;;;;;15.56;62.59;97102.30;1713621;83;20172;-87
2021/05/25 04:23:31;;;;;;;;;;;;;;;15.59;62.67;97095.36;1712665;83;20140;-87
2021/05/25 04:25:57;;;;;;;;;;;;;;;15.68;62.38;97093.58;1692681;83;20492;-88
2021/05/25 04:28:23;;;;;;;;;;;;;;;15.75;62.50;97097.27;1720434;83;20149;-87
2021/05/25 04:30:49;;;;;;;;;;;;;;;15.82;62.12;97097.48;1720328;83;20164;-86
2021/05/25 04:33:16;;;;;;;;;;;;;;;15.88;61.93;97100.87;1718322;83;20176;-87
2021/05/25 04:35:42;;;;;;;;;;;;;;;15.99;61.45;97100.61;1719161;83;20159;-86
2021/05/25 04:38:08;;;;;;;;;;;;;;;16.12;61.32;97102.02;1717950;83;20515;-83
2021/05/25 04:40:34;;;;;;;;;;;;;;;16.18;61.76;97096.05;1687493;83;20484;-87
2021/05/25 04:43:02;;;;;;;;;;;;;;;16.30;60.83;97109.42;1688207;83;20535;-87
2021/05/25 04:45:28;;;;;;;;;;;;;;;16.35;60.67;97096.47;1716416;83;20740;-82
2021/05/25 04:47:55;;;;;;;;;;;;;;;16.38;60.52;97101.95;1715883;83;20180;-85
2021/05/25 04:50:21;;;;;;;;;;;;;;;16.42;60.49;97114.47;1692966;83;20198;-86
2021/05/25 04:52:49;;;;;;;;;;;;;;;16.42;60.25;97101.17;1686226;85;20155;-85
2021/05/25 04:55:17;;;;;;;;;;;;;;;16.44;60.42;97100.00;1704304;83;20191;-87
2021/05/25 04:57:44;;;;;;;;;;;;;;;16.58;60.23;97103.88;1688402;83;20170;-83
2021/05/25 05:00:15;;;;;;;;;;;;;;;16.70;60.06;97110.55;1693092;83;20151;-85
2021/05/25 05:02:42;;;;;;;;;;;;;;;16.68;59.72;97113.05;1712776;83;20170;-82
2021/05/25 05:05:09;;;;;;;;;;;;;;;16.72;59.68;97125.05;1729519;82;20138;-85
2021/05/25 05:07:35;;;;;;;;;;;;;;;16.70;59.54;97116.39;1725916;82;20166;-84
2021/05/25 05:10:01;;;;;;;;;;;;;;;16.85;59.43;97103.29;1734872;82;20186;-86
2021/05/25 05:12:27;;;;;;;;;;;;;;;16.90;59.33;97107.61;1721204;82;20142;-83
2021/05/25 05:14:54;;;;;;;;;;;;;;;16.95;59.31;97101.34;1741375;82;20490;-83
2021/05/25 05:17:23;;;;;;;;;;;;;;;17.01;59.18;97105.19;1727201;82;20174;-85
2021/05/25 05:19:49;;;;;;;;;;;;;;;17.05;59.09;97103.84;1732801;82;20167;-83
2021/05/25 05:22:15;;;;;;;;;;;;;;;17.02;59.15;97098.88;1739137;81;20506;-82
2021/05/25 05:24:41;;;;;;;;;;;;;;;17.13;59.00;97107.85;1746481;82;20522;-84
2021/05/25 05:27:08;;;;;;;;;;;;;;;17.26;58.75;97103.37;1747123;81;20146;-85
2021/05/25 05:29:34;;;;;;;;;;;;;;;17.38;58.66;97105.71;1744278;82;20162;-85
2021/05/25 05:32:00;;;;;;;;;;;;;;;17.48;57.95;97106.38;1749124;82;20211;-84
2021/05/25 05:34:26;;;;;;;;;;;;;;;17.66;57.62;97100.04;1751631;81;20152;-82
2021/05/25 05:36:52;;;;;;;;;;;;;;;17.82;56.80;97104.52;1747702;82;20193;-83
2021/05/25 05:39:19;;;;;;;;;;;;;;;17.78;56.61;97106.70;1747206;82;20161;-82
2021/05/25 05:41:45;;;;;;;;;;;;;;;17.85;57.10;97093.53;1751172;81;20140;-80
2021/05/25 05:44:11;;;;;;;;;;;;;;;18.01;57.13;97094.86;1745803;81;20522;-83
2021/05/25 05:46:37;;;;;;;;;;;;;;;18.05;56.53;97104.16;1745452;82;20515;-83
2021/05/25 05:49:03;;;;;;;;;;;;;;;18.33;56.95;97102.93;1745672;82;20152;-83
2021/05/25 05:51:30;;;;;;;;;;;;;;;18.60;55.30;97075.45;1745508;82;20146;-83
2021/05/25 05:53:58;;;;;;;;;;;;;;;18.72;53.92;97089.56;1746526;82;20199;-81
2021/05/25 05:56:24;;;;;;;;;;;;;;;18.95;53.52;97084.81;1751701;82;20188;-84
2021/05/25 05:58:51;;;;;;;;;;;;;;;19.32;54.50;97079.69;1748375;81;20230;-82
2021/05/25 06:01:18;;;;;;;;;;;;;;;19.72;52.46;97076.34;1746027;82;20162;-83
2021/05/25 06:03:44;;;;;;;;;;;;;;;19.86;53.38;97086.77;1745431;82;20194;-84
2021/05/25 06:06:11;;;;;;;;;;;;;;;19.79;51.92;97093.84;1725667;82;20178;-82
2021/05/25 06:08:37;;;;;;;;;;;;;;;19.87;52.53;97090.27;1745450;82;20146;-83
2021/05/25 06:11:04;;;;;;;;;;;;;;;19.75;51.81;97078.66;1747180;82;20467;-84
2021/05/25 06:13:30;;;;;;;;;;;;;;;19.78;51.82;97084.97;1745131;82;20506;-84
2021/05/25 06:16:00;;;;;;;;;;;;;;;19.75;52.00;97089.84;1736445;82;20549;-84
2021/05/25 06:18:24;;;;;;;;;;;;;;;19.70;52.62;97078.88;1744502;82;20201;-84
2021/05/25 06:20:50;;;;;;;;;;;;;;;19.79;52.03;97069.25;1748751;82;20143;-82
2021/05/25 06:23:19;;;;;;;;;;;;;;;19.60;52.32;97064.42;1736249;81;20166;-83
2021/05/25 06:25:47;;;;;;;;;;;;;;;19.50;52.64;97058.82;1731109;82;20503;-83
2021/05/25 06:28:13;;;;;;;;;;;;;;;19.61;52.57;97050.05;1722505;83;20495;-83
2021/05/25 06:30:40;;;;;;;;;;;;;;;19.73;52.27;97059.30;1738789;82;20503;-84
2021/05/25 06:33:06;;;;;;;;;;;;;;;20.02;51.52;97068.39;1746015;82;20211;-81
2021/05/25 06:35:33;;;;;;;;;;;;;;;20.06;51.11;97061.64;1748255;81;20164;-81
2021/05/25 06:38:00;;;;;;;;;;;;;;;19.95;51.39;97037.53;1749283;81;20144;-81
2021/05/25 06:40:27;;;;;;;;;;;;;;;20.41;50.70;97058.39;1727753;82;20170;-83
2021/05/25 06:42:53;;;;;;;;;;;;;;;20.70;49.85;97044.63;1746304;82;20167;-82
2021/05/25 06:45:19;;;;;;;;;;;;;;;20.98;49.76;97042.06;1749447;82;20176;-83
2021/05/25 06:47:46;;;;;;;;;;;;;;;20.92;49.18;97038.00;1748172;81;20528;-83
2021/05/25 06:50:14;;;;;;;;;;;;;;;20.86;48.90;97043.08;1743211;82;20523;-83
2021/05/25 06:52:41;;;;;;;;;;;;;;;21.06;49.38;97041.96;1738283;82;20514;-83
2021/05/25 06:55:10;;;;;;;;;;;;;;;20.68;49.88;97042.64;1742789;82;20503;-82
2021/05/25 06:57:36;;;;;;;;;;;;;;;20.39;50.72;97034.50;1744892;82;20184;-81
2021/05/25 07:00:07;;;;;;;;;;;;;;;20.40;50.77;97042.02;1729019;81;20182;-81
2021/05/25 07:02:34;;;;;;;;;;;;;;;20.46;51.00;97041.28;1735762;82;20171;-81
2021/05/25 07:05:01;;;;;;;;;;;;;;;20.40;50.54;97032.64;1741730;82;20181;-81
2021/05/25 07:07:27;;;;;;;;;;;;;;;20.40;50.81;97029.97;1724184;82;20153;-81
2021/05/25 07:09:53;;;;;;;;;;;;;;;20.55;50.65;97032.62;1726507;82;20152;-82
2021/05/25 07:12:19;;;;;;;;;;;;;;;20.69;50.59;97039.80;1736818;82;20511;-79
2021/05/25 07:14:45;;;;;;;;;;;;;;;20.70;50.15;97036.08;1742105;82;20155;-81
2021/05/25 07:17:12;;;;;;;;;;;;;;;20.82;49.76;97027.58;1731227;82;20151;-82
2021/05/25 07:19:38;;;;;;;;;;;;;;;20.96;49.81;97028.55;1787248;80;20493;-82
2021/05/25 07:22:05;;;;;;;;;;;;;;;21.10;48.51;97018.29;1777078;79;20176;-83
2021/05/25 07:24:31;;;;;;;;;;;;;;;21.53;48.53;97012.86;1744204;81;20156;-79
2021/05/25 07:26:57;;;;;;;;;;;;;;;21.93;48.01;97021.70;1767887;80;20160;-82
2021/05/25 07:29:24;;;;;;;;;;;;;;;22.24;47.30;97024.95;1759412;80;20160;-81
2021/05/25 07:31:50;;;;;;;;;;;;;;;22.39;47.30;97017.60;1747596;80;20235;-83
2021/05/25 07:34:16;;;;;;;;;;;;;;;22.54;47.05;97020.67;1747753;81;20226;-82
2021/05/25 07:36:42;;;;;;;;;;;;;;;22.79;47.10;97023.64;1722413;83;20192;-82
2021/05/25 07:39:08;;;;;;;;;;;;;;;23.08;46.19;97011.69;1756871;81;20160;-83
2021/05/25 07:41:35;;;;;;;;;;;;;;;23.30;45.42;97007.51;1708288;81;20237;-82
2021/05/25 07:44:01;;;;;;;;;;;;;;;23.41;44.79;97018.68;1736819;82;20492;-83
2021/05/25 07:46:27;;;;;;;;;;;;;;;23.70;44.29;97010.18;1747154;81;20164;-82
2021/05/25 07:48:54;;;;;;;;;;;;;;;23.86;44.87;97010.77;1747550;82;20209;-81
2021/05/25 07:51:20;;;;;;;;;;;;;;;24.04;44.19;97010.64;1748446;82;20152;-78
2021/05/25 07:53:47;;;;;;;;;;;;;;;24.14;43.89;97013.72;1748997;82;20496;-83
2021/05/25 07:56:13;;;;;;;;;;;;;;;24.04;43.56;97010.11;1749220;82;20152;-81
2021/05/25 07:58:39;;;;;;;;;;;;;;;24.05;43.98;97008.27;1748615;81;20183;-81
2021/05/25 08:01:06;;;;;;;;;;;;;;;24.03;43.24;97000.91;1747643;82;20187;-82
2021/05/25 08:03:32;;;;;;;;;;;;;;;23.97;43.79;97010.66;1747689;82;20142;-82
2021/05/25 08:05:59;;;;;;;;;;;;;;;24.04;43.72;97001.22;1747630;82;20146;-83
2021/05/25 08:08:26;;;;;;;;;;;;;;;24.10;43.70;97005.25;1747855;82;20166;-82
2021/05/25 08:10:53;;;;;;;;;;;;;;;24.13;44.11;96999.95;1746705;82;20198;-83
2021/05/25 08:13:19;;;;;;;;;;;;;;;24.22;43.56;97002.72;1748267;82;20152;-82
2021/05/25 08:15:46;;;;;;;;;;;;;;;24.16;43.43;97000.88;1749128;82;20167;-82
2021/05/25 08:20:57;;;;;;;;;;;;;;;24.41;44.04;97001.50;1746118;82;20198;-83
2021/05/25 08:23:23;;;;;;;;;;;;;;;24.68;43.71;97001.39;1730618;81;20487;-83
2021/05/25 08:25:49;;;;;;;;;;;;;;;24.74;43.77;97006.75;1729459;81;20178;-82
2021/05/25 08:28:15;;;;;;;;;;;;;;;25.07;43.45;97011.09;1724317;83;20171;-81
2021/05/25 08:30:42;;;;;;;;;;;;;;;25.27;42.90;96999.33;1713473;83;20160;-81
2021/05/25 08:33:09;;;;;;;;;;;;;;;25.56;42.83;96999.23;1713991;84;20148;-83
2021/05/25 08:35:36;;;;;;;;;;;;;;;25.66;41.62;97000.07;1714077;84;20148;-84
2021/05/25 08:38:05;;;;;;;;;;;;;;;25.53;42.59;97004.23;1716232;83;20499;-84
2021/05/25 08:40:33;;;;;;;;;;;;;;;25.50;42.50;96988.50;1720118;82;20502;-81
2021/05/25 08:43:00;;;;;;;;;;;;;;;25.46;42.20;96998.07;1710753;83;20516;-83
2021/05/25 08:45:27;;;;;;;;;;;;;;;25.53;42.09;96994.27;1718827;83;20760;-83
2021/05/25 08:47:55;;;;;;;;;;;;;;;25.68;42.88;96994.44;1718295;83;20496;-83
2021/05/25 08:50:27;;;;;;;;;;;;;;;25.93;42.66;96986.83;1691780;85;20214;-82
2021/05/25 08:52:57;;;;;;;;;;;;;;;25.97;40.86;96984.81;1706543;83;20278;-83
2021/05/25 08:55:23;;;;;;;;;;;;;;;26.19;41.66;96979.80;1719186;83;20212;-82
2021/05/25 08:57:49;;;;;;;;;;;;;;;26.22;41.66;96979.06;1719513;83;20158;-82
2021/05/25 09:00:18;;;;;;;;;;;;;;;26.22;41.85;96975.83;1718795;83;20171;-83
2021/05/25 09:02:44;;;;;;;;;;;;;;;26.45;41.38;96971.60;1715138;83;20228;-83
2021/05/25 09:05:15;;;;;;;;;;;;;;;26.62;40.86;96973.96;1715032;84;20549;-83
2021/05/25 09:07:53;;;;;;;;;;;;;;;26.83;41.24;96969.64;1738712;81;20173;-84
2021/05/25 09:10:40;;;;;;;;;;;;;;;26.98;41.15;96967.31;1741469;81;20211;-83
2021/05/25 09:13:20;;;;;;;;;;;;;;;26.65;40.78;96957.27;1728656;81;20224;-82
2021/05/25 09:15:48;;;;;;;;;;;;;;;26.41;41.52;96961.75;1728930;82;20134;-83
2021/05/25 09:18:20;;;;;;;;;;;;;;;26.30;41.67;96966.05;1728731;82;20146;-83
2021/05/25 09:20:51;;;;;;;;;;;;;;;26.30;42.05;96957.95;1728816;82;20154;-84
2021/05/25 09:23:38;;;;;;;;;;;;;;;26.28;42.07;96965.45;1750632;80;20140;-82
2021/05/25 09:26:08;;;;;;;;;;;;;;;26.15;42.32;96962.39;1762808;80;20160;-84
2021/05/25 09:28:54;;;;;;;;;;;;;;;25.84;42.81;96972.28;1763008;80;20279;-83
2021/05/25 09:31:39;;;;;;;;;;;;;;;25.45;43.72;96966.23;1762768;80;20131;-84
2021/05/25 09:34:14;;;;;;;;;;;;;;;25.09;44.49;96969.10;1762956;81;20143;-83
2021/05/25 09:36:59;;;;;;;;;;;;;;;24.94;44.82;96972.92;1762985;80;20156;-83
2021/05/25 09:39:28;;;;;;;;;;;;;;;24.92;45.11;96983.63;1763044;80;20457;-84
2021/05/25 09:42:03;;;;;;;;;;;;;;;24.79;45.16;96965.68;1762417;80;20156;-83
2021/05/25 09:44:30;;;;;;;;;;;;;;;24.69;45.74;96963.98;1762537;81;20143;-84
2021/05/25 09:47:01;;;;;;;;;;;;;;;24.75;45.79;96970.68;1762840;80;20159;-84
2021/05/25 09:49:28;;;;;;;;;;;;;;;24.87;45.69;96969.45;1762893;81;20143;-83
2021/05/25 09:52:08;;;;;;;;;;;;;;;24.86;45.45;96965.64;1762869;80;20465;-84
2021/05/25 09:54:34;;;;;;;;;;;;;;;24.79;46.02;96977.80;1762803;80;20163;-83
2021/05/25 09:57:04;;;;;;;;;;;;;;;24.77;45.95;96969.11;1762861;81;20560;-83
2021/05/25 09:59:35;;;;;;;;;;;;;;;24.87;45.78;96968.64;1762477;79;20495;-84
2021/05/25 10:02:19;;;;;;;;;;;;;;;24.88;45.64;96960.83;1763037;81;20215;-84
2021/05/25 10:05:03;;;;;;;;;;;;;;;24.99;45.39;96968.22;1762980;80;20164;-82
2021/05/25 10:07:30;;;;;;;;;;;;;;;25.04;45.41;96968.92;1762924;80;20229;-83
2021/05/25 10:09:57;;;;;;;;;;;;;;;25.13;45.07;96970.30;1763143;80;20164;-83
2021/05/25 10:12:26;;;;;;;;;;;;;;;25.07;45.29;96965.80;1762986;80;20171;-84
2021/05/25 10:14:52;;;;;;;;;;;;;;;25.05;44.86;96980.85;1763026;80;20198;-83
2021/05/25 10:19:47;;;;;;;;;;;;;;;24.88;45.31;96966.22;1690183;81;20503;-83
2021/05/25 10:22:14;;;;;;;;;;;;;;;24.90;45.00;96973.58;1761484;80;20207;-83
2021/05/25 10:24:40;;;;;;;;;;;;;;;24.85;45.20;96966.69;1746975;82;20178;-83
2021/05/25 10:27:07;;;;;;;;;;;;;;;24.81;45.68;96963.59;1745955;82;20166;-83
2021/05/25 10:29:35;;;;;;;;;;;;;;;24.85;45.56;96959.41;1746645;82;20157;-83
2021/05/25 10:32:02;;;;;;;;;;;;;;;24.92;45.50;96962.88;1747024;82;20242;-83
2021/05/25 10:34:33;;;;;;;;;;;;;;;25.04;45.22;96968.41;1746824;82;20166;-84
2021/05/25 10:37:01;;;;;;;;;;;;;;;25.12;44.77;96966.48;1746961;82;20510;-82
2021/05/25 10:39:42;;;;;;;;;;;;;;;25.15;45.03;96959.31;1746864;82;20526;-83
2021/05/25 10:42:21;;;;;;;;;;;;;;;25.26;44.74;96951.83;1746710;82;20534;-84
2021/05/25 10:44:51;;;;;;;;;;;;;;;25.36;44.68;96954.05;1746752;82;20539;-83
2021/05/25 10:47:35;;;;;;;;;;;;;;;25.45;44.67;96936.56;1746958;82;20158;-84
2021/05/25 10:50:15;;;;;;;;;;;;;;;25.53;44.74;96943.02;1746947;82;20218;-84
2021/05/25 10:52:58;;;;;;;;;;;;;;;25.68;44.75;96948.05;1746835;82;20181;-83
2021/05/25 10:55:29;;;;;;;;;;;;;;;25.84;44.12;96942.59;1746325;82;20248;-84
2021/05/25 10:57:56;;;;;;;;;;;;;;;25.80;43.97;96939.22;1745093;82;20502;-83
2021/05/25 11:00:34;;;;;;;;;;;;;;;25.85;43.56;96941.52;1740542;82;20527;-83
2021/05/25 11:03:04;;;;;;;;;;;;;;;25.84;43.95;96945.29;1747936;81;20277;-84
2021/05/25 11:05:35;;;;;;;;;;;;;;;25.93;43.98;96940.40;1746448;82;20150;-82
2021/05/25 11:08:20;;;;;;;;;;;;;;;25.97;43.92;96932.67;1727084;82;20189;-84
2021/05/25 11:11:05;;;;;;;;;;;;;;;25.96;44.12;96939.95;1712780;82;20153;-83
2021/05/25 11:13:42;;;;;;;;;;;;;;;25.95;44.25;96945.06;1695374;82;20185;-82
2021/05/25 11:19:04;;;;;;;;;;;;;;;26.00;44.43;96941.14;1740626;81;20475;-84
2021/05/25 11:24:46;;;;;;;;;;;;;;;26.01;44.64;96947.38;1742144;82;20194;-79
2021/05/25 11:27:15;;;;;;;;;;;;;;;26.08;44.44;96941.37;1724788;83;20164;-80
2021/05/25 11:29:59;;;;;;;;;;;;;;;26.13;44.59;96931.27;1695395;85;20138;-81
2021/05/25 11:32:26;;;;;;;;;;;;;;;26.28;44.44;96936.28;1691809;83;20218;-82
2021/05/25 11:35:04;;;;;;;;;;;;;;;26.40;44.17;96934.46;1715950;81;20485;-82
2021/05/25 11:37:35;;;;;;;;;;;;;;;26.49;43.75;96933.59;1732554;82;20171;-81
2021/05/25 11:40:02;;;;;;;;;;;;;;;26.62;43.85;96937.98;1750892;82;20486;-84
2021/05/25 11:42:33;;;;;;;;;;;;;;;26.62;43.71;96928.02;1726725;82;20170;-84
2021/05/25 11:45:01;;;;;;;;;;;;;;;26.60;43.75;96927.92;1721894;82;20192;-83
2021/05/25 11:47:27;;;;;;;;;;;;;;;26.66;43.42;96927.02;1719508;83;20279;-83
2021/05/25 11:49:54;;;;;;;;;;;;;;;26.68;43.56;96927.59;1719246;83;20239;-81
2021/05/25 11:52:36;;;;;;;;;;;;;;;26.70;43.49;96926.84;1728005;82;20526;-82
2021/05/25 11:55:08;;;;;;;;;;;;;;;26.68;43.33;96924.89;1710388;83;20568;-83
2021/05/25 11:57:38;;;;;;;;;;;;;;;26.65;43.76;96920.77;1726220;81;20166;-83
2021/05/25 12:00:14;;;;;;;;;;;;;;;26.65;43.79;96928.88;1721060;82;20194;-84
2021/05/25 12:02:44;;;;;;;;;;;;;;;26.61;43.85;96914.71;1740446;82;20166;-83
2021/05/25 12:05:15;;;;;;;;;;;;;;;26.50;44.03;96908.23;1737853;82;20564;-81
2021/05/25 12:07:44;;;;;;;;;;;;;;;26.46;44.33;96907.02;1734052;82;20146;-82
2021/05/25 12:10:19;;;;;;;;;;;;;;;26.59;43.99;96914.11;1734201;82;20158;-82
2021/05/25 12:12:46;;;;;;;;;;;;;;;26.57;43.97;96910.84;1721948;82;20191;-80
2021/05/25 12:15:15;;;;;;;;;;;;;;;26.54;44.08;96905.89;1726321;82;20232;-84
2021/05/25 12:17:44;;;;;;;;;;;;;;;26.64;44.03;96914.26;1722092;81;20150;-84
2021/05/25 12:20:21;;;;;;;;;;;;;;;26.74;43.79;96912.33;1724801;82;20486;-83
2021/05/25 12:22:51;;;;;;;;;;;;;;;26.81;43.96;96910.41;1715807;82;20192;-81
2021/05/25 12:25:27;;;;;;;;;;;;;;;26.98;43.81;96916.48;1733665;82;20168;-79
2021/05/25 12:28:13;;;;;;;;;;;;;;;27.14;43.41;96924.44;1714578;82;20144;-79
2021/05/25 12:30:45;;;;;;;;;;;;;;;27.23;42.48;96918.98;1720853;82;20166;-77
2021/05/25 12:33:19;;;;;;;;;;;;;;;27.17;43.16;96913.98;1704780;82;20497;-78
2021/05/25 12:35:47;;;;;;;;;;;;;;;27.27;43.28;96915.58;1755719;81;20468;-80
2021/05/25 12:38:21;;;;;;;;;;;;;;;27.31;43.22;96914.57;1760016;81;20526;-86
2021/05/25 12:41:01;;;;;;;;;;;;;;;27.26;43.32;96910.38;1737557;82;20142;-79
2021/05/25 12:43:31;;;;;;;;;;;;;;;27.15;43.22;96916.09;1743696;82;20186;-76
2021/05/25 12:46:10;;;;;;;;;;;;;;;27.19;43.38;96915.09;1740302;81;20138;-78
2021/05/25 12:48:42;;;;;;;;;;;;;;;27.29;43.23;96916.68;1746528;82;20158;-77
2021/05/25 12:51:09;;;;;;;;;;;;;;;27.35;43.12;96911.67;1744809;82;20180;-80
2021/05/25 12:53:55;;;;;;;;;;;;;;;27.45;42.82;96909.77;1749175;80;20180;-75
2021/05/25 12:56:24;;;;;;;;;;;;;;;27.29;42.83;96895.03;1744283;82;20155;-75
2021/05/25 12:58:54;;;;;;;;;;;;;;;27.27;42.78;96905.27;1743941;82;20188;-79
2021/05/25 13:01:27;;;;;;;;;;;;;;;27.23;43.11;96909.52;1739192;80;20171;-81
2021/05/25 13:03:56;;;;;;;;;;;;;;;27.23;43.05;96914.37;1726652;83;20178;-76
2021/05/25 13:06:32;;;;;;;;;;;;;;;27.24;42.81;96907.91;1742451;82;20169;-75